Weather History for Perry, IA

Change the Weather History Date:

Tuesday, December 11, 2012

  Actual Average Record
Temperature  
Mean Temperature 30 °F -  
Max Temperature 43 °F 32 °F 64 °F (1965)
Min Temperature 17 °F 12 °F -10 °F (1976)
Degree Days  
Heating Degree Days 35    
Moisture  
Dew Point 20 °F    
Average Humidity 68    
Maximum Humidity 84    
Minimum Humidity 47    
Precipitation  
Precipitation 0.00 in - - ()
Sea Level Pressure  
Sea Level Pressure 29.95 in    
Wind  
Wind Speed 9 mph (SW)    
Max Wind Speed 23 mph    
Max Gust Speed 26 mph    
Visibility 10 miles    
Events      
Averages and records for this station are not official NWS values.
T = Trace of Precipitation, MM = Missing Value Source: NWS Daily Summary

Daily Weather History Graph

Daily Weather History Graph

Search for Another Location

Airport:

Trip Planner

Search our weather history database for the weather conditions in past years. The results will help you decide how hot, cold, wet, or windy it might be!

Date:

Astronomy

Dec. 11, 2012 Rise Set
Actual Time 7:34 AM CST 4:45 PM CST
Civil Twilight 7:02 AM CST 5:17 PM CST
Nautical Twilight 6:27 AM CST 5:52 PM CST
Astronomical Twilight 5:54 AM CST 6:26 PM CST
Moon 5:29 AM CST 3:26 PM CST
Length of Visible Light 10h 14m
Length of Day
9h 11m
Waning Crescent, 4% of the Moon is Illuminated
Dec 11
Waning Crescent
Dec 13
New
Dec 19
First Quarter
Dec 28
Full
Jan 4
Last Quarter

Hourly Weather History & Observations

Time (CST) Temp. Windchill Dew Point Humidity Pressure Visibility Wind Dir Wind Speed Gust Speed Precip Events Conditions
12:15 AM 17.8 °F 9.6 °F 11.3 °F 76% 29.89 in 10.0 mi SSE 5.8 mph - N/A   Clear
12:35 AM 17.6 °F 7.3 °F 11.3 °F 76% 29.89 in 10.0 mi South 8.1 mph - N/A   Clear
12:55 AM 18.3 °F 9.1 °F 11.7 °F 75% 29.89 in 10.0 mi South 6.9 mph - N/A   Mostly Cloudy
1:15 AM 21.4 °F 11.9 °F 13.1 °F 70% 29.88 in 10.0 mi South 8.1 mph - N/A   Overcast
1:35 AM 23.2 °F 13.3 °F 13.5 °F 66% 29.88 in 10.0 mi SSW 9.2 mph - N/A   Overcast
1:55 AM 23.7 °F 14.0 °F 13.5 °F 65% 29.88 in 10.0 mi SSW 9.2 mph - N/A   Overcast
2:35 AM 24.6 °F 16.7 °F 15.4 °F 68% 29.88 in 10.0 mi SW 6.9 mph - N/A   Overcast
2:55 AM 24.8 °F 16.9 °F 16.7 °F 71% 29.89 in 10.0 mi SW 6.9 mph - N/A   Overcast
3:15 AM 25.7 °F 18.0 °F 17.1 °F 70% 29.89 in 10.0 mi WSW 6.9 mph - N/A   Overcast
3:35 AM 27.1 °F 18.9 °F 15.3 °F 61% 29.89 in 10.0 mi WSW 8.1 mph - N/A   Overcast
3:55 AM 27.0 °F 20.5 °F 16.5 °F 65% 29.88 in 10.0 mi SW 5.8 mph - N/A   Overcast
4:15 AM 26.4 °F 17.3 °F 16.3 °F 66% 29.89 in 10.0 mi WSW 9.2 mph - N/A   Overcast
4:35 AM 25.7 °F 18.0 °F 16.3 °F 68% 29.90 in 10.0 mi West 6.9 mph - N/A   Overcast
4:55 AM 26.4 °F 18.0 °F 17.4 °F 69% 29.90 in 10.0 mi West 8.1 mph - N/A   Overcast
5:15 AM 24.8 °F 16.1 °F 16.5 °F 71% 29.90 in 10.0 mi WSW 8.1 mph - N/A   Scattered Clouds
5:35 AM 23.2 °F 13.3 °F 16.0 °F 74% 29.91 in 10.0 mi WSW 9.2 mph - N/A   Clear
5:55 AM 22.3 °F 13.9 °F 15.8 °F 76% 29.91 in 10.0 mi West 6.9 mph - N/A   Clear
6:15 AM 20.7 °F 15.8 °F 14.9 °F 78% 29.92 in 10.0 mi West 3.5 mph - N/A   Clear
6:35 AM 21.2 °F 16.4 °F 14.9 °F 77% 29.93 in 10.0 mi WSW 3.5 mph - N/A   Scattered Clouds
6:55 AM 20.7 °F 11.9 °F 14.7 °F 78% 29.93 in 10.0 mi WSW 6.9 mph - N/A   Scattered Clouds
7:15 AM 22.6 °F 13.4 °F 17.1 °F 79% 29.94 in 10.0 mi WSW 8.1 mph - N/A   Mostly Cloudy
7:55 AM 23.0 °F 13.9 °F 16.9 °F 77% 29.94 in 10.0 mi WSW 8.1 mph - N/A   Scattered Clouds
8:15 AM 24.3 °F 15.4 °F 18.1 °F 77% 29.94 in 10.0 mi WSW 8.1 mph - N/A   Clear
8:35 AM 26.2 °F 17.1 °F 19.6 °F 76% 29.95 in 10.0 mi WSW 9.2 mph - N/A   Clear
8:55 AM 28.6 °F 19.3 °F 20.7 °F 72% 29.95 in 10.0 mi WSW 10.4 mph - N/A   Clear
9:15 AM 30.7 °F 22.0 °F 21.7 °F 69% 29.96 in 10.0 mi WSW 10.4 mph - N/A   Clear
9:55 AM 34.2 °F 24.8 °F 22.8 °F 63% 29.97 in 10.0 mi WSW 13.8 mph - N/A   Scattered Clouds
10:15 AM 35.4 °F 26.0 °F 23.4 °F 62% 29.97 in 10.0 mi WSW 15.0 mph - N/A   Mostly Cloudy
10:35 AM 35.6 °F 26.2 °F 23.2 °F 61% 29.97 in 10.0 mi WSW 15.0 mph - N/A   Overcast
10:55 AM 35.6 °F 26.2 °F 23.2 °F 61% 29.96 in 10.0 mi WSW 15.0 mph - N/A   Overcast
11:15 AM 38.5 °F 28.9 °F 23.0 °F 54% 29.96 in 10.0 mi WSW 18.4 mph 23.0 mph N/A   Scattered Clouds
11:35 AM 39.7 °F 30.3 °F 23.5 °F 52% 29.95 in 10.0 mi WSW 19.6 mph - N/A   Clear
11:55 AM 41.2 °F 33.0 °F 23.5 °F 50% 29.94 in 10.0 mi WSW 16.1 mph - N/A   Clear
12:15 PM 41.9 °F 32.3 °F 23.0 °F 47% 29.94 in 10.0 mi WSW 23.0 mph 26.5 mph N/A   Clear
12:35 PM 43.2 °F 34.2 °F 24.4 °F 48% 29.94 in 10.0 mi West 21.9 mph 26.5 mph N/A   Scattered Clouds
12:55 PM 42.1 °F 33.3 °F 23.7 °F 48% 29.94 in 10.0 mi West 19.6 mph - N/A   Overcast
1:15 PM 41.9 °F 33.4 °F 24.6 °F 50% 29.94 in 10.0 mi West 18.4 mph 26.5 mph N/A   Overcast
1:35 PM 42.3 °F 33.8 °F 24.3 °F 49% 29.94 in 10.0 mi West 18.4 mph 25.3 mph N/A   Overcast
1:55 PM 41.2 °F 33.0 °F 23.4 °F 49% 29.94 in 10.0 mi West 16.1 mph 26.5 mph N/A   Overcast
2:15 PM 41.0 °F 32.8 °F 23.2 °F 49% 29.94 in 10.0 mi WNW 16.1 mph 23.0 mph N/A   Overcast
2:35 PM 41.0 °F 32.8 °F 24.3 °F 51% 29.94 in 10.0 mi West 16.1 mph - N/A   Overcast
2:55 PM 42.1 °F 33.3 °F 24.4 °F 50% 29.94 in 10.0 mi West 19.6 mph 24.2 mph N/A   Overcast
3:15 PM 41.2 °F 33.7 °F 24.8 °F 52% 29.94 in 10.0 mi West 13.8 mph 18.4 mph N/A   Scattered Clouds
3:35 PM 41.9 °F 34.3 °F 25.0 °F 51% 29.95 in 10.0 mi West 15.0 mph 19.6 mph N/A   Clear
3:55 PM 41.4 °F 34.7 °F 25.0 °F 52% 29.96 in 10.0 mi West 11.5 mph - N/A   Clear
4:15 PM 39.9 °F 34.5 °F 25.5 °F 56% 29.96 in 10.0 mi West 8.1 mph - N/A   Clear
4:35 PM 36.7 °F 32.9 °F 25.5 °F 64% 29.96 in 10.0 mi WSW 4.6 mph - N/A   Clear
4:55 PM 35.6 °F 30.7 °F 24.8 °F 65% 29.96 in 10.0 mi West 5.8 mph - N/A   Clear
5:15 PM 34.0 °F 29.8 °F 24.6 °F 69% 29.97 in 10.0 mi WSW 4.6 mph - N/A   Clear
5:35 PM 32.9 °F 25.9 °F 24.3 °F 71% 29.97 in 10.0 mi SW 8.1 mph - N/A   Clear
5:55 PM 29.8 °F 23.9 °F 23.2 °F 76% 29.97 in 10.0 mi SSW 5.8 mph - N/A   Clear
6:15 PM 29.8 °F 23.0 °F 23.0 °F 76% 29.97 in 10.0 mi SSW 6.9 mph - N/A   Clear
6:35 PM 28.9 °F 21.1 °F 22.8 °F 78% 29.97 in 10.0 mi SSW 8.1 mph - N/A   Clear
6:55 PM 28.4 °F 21.2 °F 22.5 °F 78% 29.97 in 10.0 mi South 6.9 mph - N/A   Clear
7:15 PM 28.2 °F 23.1 °F 22.8 °F 80% 29.98 in 10.0 mi South 4.6 mph - N/A   Clear
7:35 PM 28.4 °F 22.2 °F 22.6 °F 79% 29.98 in 10.0 mi South 5.8 mph - N/A   Clear
7:55 PM 26.6 °F 19.1 °F 21.2 °F 80% 29.99 in 10.0 mi South 6.9 mph - N/A   Clear
8:15 PM 26.1 °F 18.4 °F 21.6 °F 83% 29.99 in 10.0 mi South 6.9 mph - N/A   Clear
8:35 PM 26.4 °F 18.9 °F 21.2 °F 81% 29.99 in 10.0 mi SSW 6.9 mph - N/A   Clear
8:55 PM 26.6 °F 20.0 °F 21.6 °F 81% 29.99 in 10.0 mi South 5.8 mph - N/A   Clear
9:15 PM 26.8 °F 20.2 °F 21.2 °F 79% 30.00 in 10.0 mi South 5.8 mph - N/A   Clear
9:35 PM 25.9 °F 20.3 °F 20.8 °F 81% 30.00 in 10.0 mi SSE 4.6 mph - N/A   Clear
9:55 PM 25.0 °F 18.1 °F 20.3 °F 82% 30.01 in 10.0 mi South 5.8 mph - N/A   Clear
10:15 PM 25.3 °F 18.5 °F 20.5 °F 82% 30.00 in 10.0 mi South 5.8 mph - N/A   Clear
10:35 PM 23.9 °F 15.8 °F 19.8 °F 84% 30.00 in 10.0 mi SSE 6.9 mph - N/A   Clear
10:55 PM 24.6 °F 16.7 °F 19.9 °F 82% 30.00 in 10.0 mi SSE 6.9 mph - N/A   Clear
11:15 PM 25.3 °F 17.6 °F 20.3 °F 81% 30.01 in 10.0 mi South 6.9 mph - N/A   Clear
11:35 PM 24.8 °F 16.1 °F 19.4 °F 80% 30.02 in 10.0 mi South 8.1 mph - N/A   Clear
11:55 PM 24.3 °F 15.4 °F 19.4 °F 82% 30.02 in 10.0 mi SSW 8.1 mph - N/A   Clear